createdAt,value
2022-08-18T00:00:03.293Z,19.86
2022-08-18T00:01:03.362Z,19.80
2022-08-18T00:02:02.393Z,19.77
2022-08-18T00:03:07.420Z,19.76
2022-08-18T00:04:03.742Z,19.74
2022-08-18T00:05:02.863Z,19.70
2022-08-18T00:06:02.710Z,19.70
2022-08-18T00:07:03.229Z,19.69
2022-08-18T00:08:02.663Z,19.70
2022-08-18T00:09:03.200Z,19.71
2022-08-18T00:10:02.886Z,19.73
2022-08-18T00:11:02.819Z,19.73
2022-08-18T00:12:02.820Z,19.71
2022-08-18T00:13:03.231Z,19.66
2022-08-18T00:14:02.992Z,19.62
2022-08-18T00:15:02.824Z,19.63
2022-08-18T00:16:02.787Z,19.66
2022-08-18T00:17:02.570Z,19.64
2022-08-18T00:18:02.532Z,19.66
2022-08-18T00:19:07.102Z,19.65
2022-08-18T00:20:02.774Z,19.64
2022-08-18T00:21:02.781Z,19.62
2022-08-18T00:22:02.706Z,19.57
2022-08-18T00:23:02.665Z,19.55
2022-08-18T00:24:02.994Z,19.54
2022-08-18T00:25:02.996Z,19.50
2022-08-18T00:26:02.986Z,19.46
2022-08-18T00:27:03.027Z,19.46
2022-08-18T00:28:02.904Z,19.45
2022-08-18T00:29:02.853Z,19.45
2022-08-18T00:30:03.294Z,19.45
2022-08-18T00:31:03.162Z,19.44
2022-08-18T00:32:03.131Z,19.41
2022-08-18T00:33:03.166Z,19.39
2022-08-18T00:34:03.130Z,19.35
2022-08-18T00:35:03.218Z,19.34
2022-08-18T00:36:03.188Z,19.33
2022-08-18T00:37:02.945Z,19.27
2022-08-18T00:38:02.702Z,19.24
2022-08-18T00:39:03.140Z,19.23
2022-08-18T00:40:03.153Z,19.22
2022-08-18T00:41:02.697Z,19.19
2022-08-18T00:42:03.336Z,19.18
2022-08-18T00:43:04.184Z,19.17
2022-08-18T00:44:03.404Z,19.17
2022-08-18T00:45:03.646Z,19.18
2022-08-18T00:46:03.617Z,19.19
2022-08-18T00:47:02.652Z,19.20
2022-08-18T00:48:02.884Z,19.18
2022-08-18T00:49:02.832Z,19.15
2022-08-18T00:50:02.905Z,19.11
2022-08-18T00:51:02.770Z,19.09
2022-08-18T00:52:02.806Z,19.06
2022-08-18T00:53:02.902Z,19.00
2022-08-18T00:54:02.903Z,18.99
2022-08-18T00:55:02.590Z,18.98
2022-08-18T00:56:03.109Z,18.94
2022-08-18T00:57:02.848Z,18.94
2022-08-18T00:58:02.798Z,18.92
2022-08-18T00:59:02.741Z,18.88
2022-08-18T01:00:02.675Z,18.86
2022-08-18T01:01:03.150Z,18.85
2022-08-18T01:02:02.897Z,18.82
2022-08-18T01:03:02.722Z,18.81
2022-08-18T01:04:02.610Z,18.83
2022-08-18T01:05:02.731Z,18.87
2022-08-18T01:06:02.713Z,18.84
2022-08-18T01:07:02.551Z,18.89
2022-08-18T01:08:02.317Z,18.93
2022-08-18T01:09:02.640Z,18.91
2022-08-18T01:10:02.619Z,18.87
2022-08-18T01:11:02.585Z,18.86
2022-08-18T01:12:44.358Z,18.85
2022-08-18T01:13:02.600Z,18.84
2022-08-18T01:14:02.272Z,18.85
2022-08-18T01:15:02.358Z,18.87
2022-08-18T01:16:02.401Z,18.87
2022-08-18T01:17:03.134Z,18.82
2022-08-18T01:18:02.855Z,18.80
2022-08-18T01:19:02.940Z,18.81
2022-08-18T01:20:03.124Z,18.78
2022-08-18T01:21:03.115Z,18.79
2022-08-18T01:22:02.896Z,18.77
2022-08-18T01:23:02.868Z,18.70
2022-08-18T01:24:02.802Z,18.66
2022-08-18T01:25:02.549Z,18.62
2022-08-18T01:26:02.961Z,18.57
2022-08-18T01:27:03.077Z,18.57
2022-08-18T01:28:03.085Z,18.60
2022-08-18T01:29:02.975Z,18.65
2022-08-18T01:30:02.660Z,18.65
2022-08-18T01:31:02.789Z,18.65
2022-08-18T01:32:02.505Z,18.63
2022-08-18T01:33:02.472Z,18.60
2022-08-18T01:34:02.213Z,18.59
2022-08-18T01:35:02.467Z,18.56
2022-08-18T01:36:02.454Z,18.52
2022-08-18T01:37:02.688Z,18.50
2022-08-18T01:38:02.962Z,18.48
2022-08-18T01:39:03.140Z,18.49
2022-08-18T01:41:23.293Z,18.56
2022-08-18T01:41:27.101Z,18.57
2022-08-18T01:42:02.547Z,18.52
2022-08-18T01:43:02.445Z,18.49
2022-08-18T01:44:02.432Z,18.48
2022-08-18T01:45:02.411Z,18.45
2022-08-18T01:46:02.391Z,18.43
2022-08-18T01:47:02.539Z,18.40
2022-08-18T01:48:03.210Z,18.34
2022-08-18T01:49:03.214Z,18.29
2022-08-18T01:50:03.046Z,18.27
2022-08-18T01:51:02.689Z,18.25
2022-08-18T01:52:03.348Z,18.26
2022-08-18T01:53:03.033Z,18.24
2022-08-18T01:54:02.974Z,18.24
2022-08-18T01:55:02.977Z,18.20
2022-08-18T01:56:02.917Z,18.17
2022-08-18T01:57:02.761Z,18.14
2022-08-18T01:58:02.158Z,18.13
2022-08-18T01:59:02.234Z,18.13
2022-08-18T02:00:02.214Z,18.13
2022-08-18T02:01:02.528Z,18.14
2022-08-18T02:02:03.265Z,18.16
2022-08-18T02:03:03.135Z,18.15
2022-08-18T02:04:31.169Z,18.15
2022-08-18T02:05:03.244Z,18.15
2022-08-18T02:06:03.056Z,18.12
2022-08-18T02:07:04.195Z,18.11
2022-08-18T02:08:02.675Z,18.12
2022-08-18T02:09:02.747Z,18.08
2022-08-18T02:10:02.833Z,18.05
2022-08-18T02:11:02.909Z,18.03
2022-08-18T02:12:03.729Z,18.03
2022-08-18T02:13:02.797Z,18.08
2022-08-18T02:14:03.231Z,18.09
2022-08-18T02:15:03.310Z,18.11
2022-08-18T02:16:02.944Z,18.12
2022-08-18T02:17:02.965Z,18.06
2022-08-18T02:18:02.433Z,18.02
2022-08-18T02:19:02.122Z,18.00
2022-08-18T02:20:02.646Z,17.99
2022-08-18T02:21:02.645Z,18.00
2022-08-18T02:22:03.134Z,18.02
2022-08-18T02:23:03.124Z,18.04
2022-08-18T02:24:02.970Z,18.02
2022-08-18T02:25:03.046Z,18.03
2022-08-18T02:26:03.272Z,18.01
2022-08-18T02:27:03.140Z,17.98
2022-08-18T02:28:03.080Z,17.99
2022-08-18T02:29:03.282Z,17.98
2022-08-18T02:30:03.420Z,17.97
2022-08-18T02:31:03.422Z,17.98
2022-08-18T02:32:02.501Z,17.96
2022-08-18T02:33:02.497Z,17.90
2022-08-18T02:34:02.475Z,17.84
2022-08-18T02:35:02.478Z,17.83
2022-08-18T02:36:02.643Z,17.83
2022-08-18T02:37:03.076Z,17.81
2022-08-18T02:38:03.141Z,17.79
2022-08-18T02:39:02.746Z,17.78
2022-08-18T02:40:03.372Z,17.80
2022-08-18T02:41:02.822Z,17.80
2022-08-18T02:42:03.030Z,17.75
2022-08-18T02:43:03.013Z,17.68
2022-08-18T02:44:03.003Z,17.63
2022-08-18T02:45:03.063Z,17.64
2022-08-18T02:46:03.053Z,17.67
2022-08-18T02:47:03.032Z,17.68
2022-08-18T02:48:03.117Z,17.72
2022-08-18T02:49:03.602Z,17.74
2022-08-18T02:50:03.342Z,17.74
2022-08-18T02:51:03.399Z,17.76
2022-08-18T02:52:02.338Z,17.75
2022-08-18T02:53:02.296Z,17.75
2022-08-18T02:54:02.289Z,17.74
2022-08-18T02:55:02.761Z,17.70
2022-08-18T02:56:02.771Z,17.66
2022-08-18T02:57:02.814Z,17.63
2022-08-18T02:58:02.772Z,17.58
2022-08-18T02:59:02.780Z,17.56
2022-08-18T03:00:03.282Z,17.54
2022-08-18T03:01:03.246Z,17.54
2022-08-18T03:02:02.917Z,17.53
2022-08-18T03:03:02.894Z,17.52
2022-08-18T03:04:02.870Z,17.53
2022-08-18T03:05:03.537Z,17.53
2022-08-18T03:06:03.234Z,17.54
2022-08-18T03:07:03.250Z,17.51
2022-08-18T03:08:03.253Z,17.50
2022-08-18T03:09:03.221Z,17.45
2022-08-18T03:10:31.891Z,17.40
2022-08-18T03:11:03.292Z,17.34
2022-08-18T03:12:03.339Z,17.30
2022-08-18T03:13:03.408Z,17.29
2022-08-18T03:14:03.558Z,17.26
2022-08-18T03:15:03.821Z,17.24
2022-08-18T03:16:03.576Z,17.21
2022-08-18T03:17:02.682Z,17.18
2022-08-18T03:18:02.772Z,17.15
2022-08-18T03:19:03.052Z,17.14
2022-08-18T03:20:03.117Z,17.17
2022-08-18T03:21:02.515Z,17.22
2022-08-18T03:22:03.651Z,17.25
2022-08-18T03:23:05.779Z,17.27
2022-08-18T03:24:03.066Z,17.28
2022-08-18T03:25:03.709Z,17.35
2022-08-18T03:26:03.496Z,17.41
2022-08-18T03:27:03.508Z,17.47
2022-08-18T03:28:03.516Z,17.50
2022-08-18T03:29:03.749Z,17.56
2022-08-18T03:30:03.669Z,17.61
2022-08-18T03:31:03.887Z,17.64
2022-08-18T03:32:03.028Z,17.62
2022-08-18T03:33:03.241Z,17.66
2022-08-18T03:34:03.271Z,17.66
2022-08-18T03:35:03.320Z,17.64
2022-08-18T03:36:03.369Z,17.63
2022-08-18T03:37:03.860Z,17.62
2022-08-18T03:38:04.254Z,17.63
2022-08-18T03:39:03.413Z,17.62
2022-08-18T03:40:03.570Z,17.61
2022-08-18T03:41:03.412Z,17.64
2022-08-18T03:42:03.416Z,17.66
2022-08-18T03:43:03.303Z,17.67
2022-08-18T03:44:03.247Z,17.71
2022-08-18T03:45:13.439Z,17.72
2022-08-18T03:46:03.389Z,17.74
2022-08-18T03:47:03.367Z,17.74
2022-08-18T03:48:03.475Z,17.72
2022-08-18T03:49:03.479Z,17.71
2022-08-18T03:50:03.499Z,17.70
2022-08-18T03:51:05.362Z,17.70
2022-08-18T03:52:02.928Z,17.71
2022-08-18T03:53:02.744Z,17.73
2022-08-18T03:54:03.064Z,17.74
2022-08-18T03:55:03.075Z,17.78
2022-08-18T03:56:03.199Z,17.81
2022-08-18T03:57:03.197Z,17.83
2022-08-18T03:58:03.202Z,17.83
2022-08-18T03:59:02.905Z,17.91
2022-08-18T04:00:03.495Z,17.97
2022-08-18T04:01:03.624Z,17.98
2022-08-18T04:02:03.336Z,17.98
2022-08-18T04:03:03.265Z,17.98
2022-08-18T04:04:03.382Z,17.97
2022-08-18T04:05:03.499Z,17.97
2022-08-18T04:06:03.347Z,17.97
2022-08-18T04:07:03.406Z,17.97
2022-08-18T04:08:03.208Z,17.99
2022-08-18T04:09:03.624Z,18.02
2022-08-18T04:10:03.259Z,18.04
2022-08-18T04:11:03.309Z,18.08
2022-08-18T04:12:03.107Z,18.13
2022-08-18T04:13:02.962Z,18.16
2022-08-18T04:14:02.780Z,18.21
2022-08-18T04:15:02.840Z,18.21
2022-08-18T04:16:02.909Z,18.26
2022-08-18T04:17:02.778Z,18.32
2022-08-18T04:18:03.688Z,18.40
2022-08-18T04:19:02.765Z,18.45
2022-08-18T04:20:02.867Z,18.45
2022-08-18T04:21:02.620Z,18.47
2022-08-18T04:22:03.433Z,18.47
2022-08-18T04:23:03.483Z,18.45
2022-08-18T04:24:03.406Z,18.46
2022-08-18T04:25:03.605Z,18.47
2022-08-18T04:26:03.137Z,18.46
2022-08-18T04:27:03.035Z,18.43
2022-08-18T04:28:02.490Z,18.43
2022-08-18T04:29:02.687Z,18.43
2022-08-18T04:30:02.934Z,18.41
2022-08-18T04:31:02.947Z,18.42
2022-08-18T04:32:03.037Z,18.41
2022-08-18T04:33:03.115Z,18.41
2022-08-18T04:34:02.515Z,18.39
2022-08-18T04:35:03.255Z,18.38
2022-08-18T04:36:03.128Z,18.37
2022-08-18T04:37:03.294Z,18.37
2022-08-18T04:38:03.408Z,18.36
2022-08-18T04:39:02.939Z,18.36
2022-08-18T04:40:03.226Z,18.36
2022-08-18T04:41:03.043Z,18.38
2022-08-18T04:42:03.964Z,18.43
2022-08-18T04:43:03.505Z,18.53
2022-08-18T04:44:03.612Z,18.60
2022-08-18T04:45:03.806Z,18.62
2022-08-18T04:46:03.833Z,18.66
2022-08-18T04:47:03.501Z,18.64
2022-08-18T04:48:02.457Z,18.61
2022-08-18T04:49:02.737Z,18.60
2022-08-18T04:50:03.088Z,18.61
2022-08-18T04:51:02.956Z,18.64
2022-08-18T04:52:34.276Z,18.66
2022-08-18T04:53:03.598Z,18.69
2022-08-18T04:54:03.712Z,18.67
2022-08-18T04:55:03.213Z,18.69
2022-08-18T04:56:03.457Z,18.67
2022-08-18T04:57:03.718Z,18.67
2022-08-18T04:58:03.505Z,18.67
2022-08-18T04:59:03.841Z,18.69
2022-08-18T05:00:03.520Z,18.70
2022-08-18T05:01:03.332Z,18.73
2022-08-18T05:02:02.589Z,18.76
2022-08-18T05:03:02.706Z,18.77
2022-08-18T05:04:02.899Z,18.78
2022-08-18T05:05:03.022Z,18.78
2022-08-18T05:06:02.667Z,18.77
2022-08-18T05:07:01.858Z,18.79
2022-08-18T05:08:01.985Z,18.79
2022-08-18T05:09:02.210Z,18.82
2022-08-18T05:10:02.246Z,18.85
2022-08-18T05:11:04.261Z,18.87
2022-08-18T05:12:02.270Z,18.90
2022-08-18T05:13:02.424Z,18.91
2022-08-18T05:14:02.498Z,18.92
2022-08-18T05:15:02.559Z,18.94
2022-08-18T05:16:10.896Z,18.95
2022-08-18T05:17:02.784Z,18.96
2022-08-18T05:18:03.265Z,18.96
2022-08-18T05:19:03.364Z,18.96
2022-08-18T05:20:03.447Z,18.97
2022-08-18T05:21:03.296Z,19.00
2022-08-18T05:22:03.020Z,19.00
2022-08-18T05:23:02.450Z,19.02
2022-08-18T05:24:02.559Z,19.05
2022-08-18T05:25:02.763Z,19.06
2022-08-18T05:26:03.010Z,19.07
2022-08-18T05:27:02.883Z,19.09
2022-08-18T05:28:02.969Z,19.10
2022-08-18T05:29:17.597Z,19.09
2022-08-18T05:30:03.178Z,19.10
2022-08-18T05:31:03.275Z,19.10
2022-08-18T05:32:02.830Z,19.11
2022-08-18T05:33:02.577Z,19.11
2022-08-18T05:34:02.808Z,19.11
2022-08-18T05:35:02.987Z,19.10
2022-08-18T05:36:02.875Z,19.12
2022-08-18T05:37:02.989Z,19.14
2022-08-18T05:38:03.144Z,19.14
2022-08-18T05:39:03.641Z,19.17
2022-08-18T05:40:08.912Z,19.16
2022-08-18T05:41:03.559Z,19.18
2022-08-18T05:42:02.480Z,19.21
2022-08-18T05:43:02.896Z,19.25
2022-08-18T05:44:02.698Z,19.29
2022-08-18T05:45:02.900Z,19.32
2022-08-18T05:46:02.889Z,19.34
2022-08-18T05:47:03.035Z,19.35
2022-08-18T05:48:03.665Z,19.37
2022-08-18T05:49:02.921Z,19.41
2022-08-18T05:50:03.369Z,19.44
2022-08-18T05:51:03.125Z,19.43
2022-08-18T05:52:02.488Z,19.46
2022-08-18T05:53:02.612Z,19.49
2022-08-18T05:54:02.583Z,19.51
2022-08-18T05:55:02.479Z,19.53
2022-08-18T05:56:02.220Z,19.56
2022-08-18T05:57:02.465Z,19.57
2022-08-18T05:58:02.741Z,19.58
2022-08-18T05:59:02.267Z,19.58
2022-08-18T06:00:02.834Z,19.61
2022-08-18T06:01:02.620Z,19.61
2022-08-18T06:02:02.823Z,19.61
2022-08-18T06:03:03.222Z,19.63
2022-08-18T06:04:03.158Z,19.65
2022-08-18T06:05:03.213Z,19.65
2022-08-18T06:06:03.150Z,19.69
2022-08-18T06:07:02.739Z,19.72
2022-08-18T06:08:02.660Z,19.74
2022-08-18T06:09:02.580Z,19.77
2022-08-18T06:10:02.666Z,19.80
2022-08-18T06:11:02.703Z,19.83
2022-08-18T06:12:02.468Z,19.84
2022-08-18T06:13:02.676Z,19.82
2022-08-18T06:14:02.870Z,19.83
2022-08-18T06:15:05.875Z,19.85
2022-08-18T06:16:02.605Z,19.89
2022-08-18T06:17:02.868Z,19.91
2022-08-18T06:18:02.734Z,19.92
2022-08-18T06:19:03.031Z,19.91
2022-08-18T06:20:02.967Z,19.91
2022-08-18T06:21:02.973Z,19.91
2022-08-18T06:22:01.794Z,19.92
2022-08-18T06:23:02.312Z,19.92
2022-08-18T06:24:01.953Z,19.95
2022-08-18T06:25:01.984Z,19.98
2022-08-18T06:26:02.057Z,20.01
2022-08-18T06:27:02.802Z,20.04
2022-08-18T06:28:02.997Z,20.08
2022-08-18T06:29:03.085Z,20.10
2022-08-18T06:30:02.940Z,20.10
2022-08-18T06:31:02.484Z,20.10
2022-08-18T06:32:02.376Z,20.11
2022-08-18T06:33:02.550Z,20.12
2022-08-18T06:34:02.590Z,20.13
2022-08-18T06:35:02.020Z,20.15
2022-08-18T06:36:02.609Z,20.15
2022-08-18T06:37:02.546Z,20.18
2022-08-18T06:38:02.732Z,20.22
2022-08-18T06:39:02.283Z,20.23
2022-08-18T06:40:02.274Z,20.26
2022-08-18T06:41:02.378Z,20.31
2022-08-18T06:42:03.104Z,20.30
2022-08-18T06:43:03.269Z,20.30
2022-08-18T06:44:02.751Z,20.30
2022-08-18T06:45:02.734Z,20.31
2022-08-18T06:46:02.788Z,20.33
2022-08-18T06:47:02.711Z,20.36
2022-08-18T06:48:02.862Z,20.38
2022-08-18T06:49:02.868Z,20.36
2022-08-18T06:50:02.787Z,20.39
2022-08-18T06:51:02.303Z,20.41
2022-08-18T06:52:03.417Z,20.43
2022-08-18T06:53:02.705Z,20.44
2022-08-18T06:54:02.944Z,20.40
2022-08-18T06:55:03.121Z,20.42
2022-08-18T06:56:03.321Z,20.40
2022-08-18T06:57:03.200Z,20.42
2022-08-18T06:58:02.804Z,20.41
2022-08-18T06:59:02.740Z,20.39
2022-08-18T07:00:03.141Z,20.35
2022-08-18T07:01:03.229Z,20.36
2022-08-18T07:02:02.129Z,20.35
2022-08-18T07:03:02.088Z,20.36
2022-08-18T07:04:02.566Z,20.40
2022-08-18T07:05:02.075Z,20.41
2022-08-18T07:06:02.157Z,20.38
2022-08-18T07:07:02.577Z,20.36
2022-08-18T07:08:03.087Z,20.40
2022-08-18T07:09:02.789Z,20.38
2022-08-18T07:10:02.634Z,20.40
2022-08-18T07:11:02.677Z,20.40
2022-08-18T07:12:02.558Z,20.44
2022-08-18T07:13:02.399Z,20.45
2022-08-18T07:14:16.079Z,20.48
2022-08-18T07:15:02.096Z,20.45
2022-08-18T07:16:02.126Z,20.42
2022-08-18T07:17:03.039Z,20.39
2022-08-18T07:18:02.733Z,20.44
2022-08-18T07:19:03.248Z,20.49
2022-08-18T07:20:03.239Z,20.53
2022-08-18T07:21:02.668Z,20.53
2022-08-18T07:22:02.246Z,20.58
2022-08-18T07:23:02.402Z,20.63
2022-08-18T07:24:23.679Z,20.66
2022-08-18T07:25:05.300Z,20.65
2022-08-18T07:26:02.278Z,20.60
2022-08-18T07:27:03.084Z,20.59
2022-08-18T07:28:03.095Z,20.60
2022-08-18T07:29:02.610Z,20.59
2022-08-18T07:30:03.119Z,20.61
2022-08-18T07:31:16.314Z,20.65
2022-08-18T07:32:02.826Z,20.69
2022-08-18T07:33:02.301Z,20.72
2022-08-18T07:34:02.815Z,20.75
2022-08-18T07:35:02.409Z,20.78
2022-08-18T07:36:02.411Z,20.80
2022-08-18T07:37:03.056Z,20.80
2022-08-18T07:38:18.729Z,20.79
2022-08-18T07:39:02.583Z,20.81
2022-08-18T07:40:02.786Z,20.85
2022-08-18T07:41:02.990Z,20.87
2022-08-18T07:42:02.962Z,20.82
2022-08-18T07:43:02.917Z,20.81
2022-08-18T07:44:02.663Z,20.80
2022-08-18T07:45:02.871Z,20.84
2022-08-18T07:46:02.575Z,20.85
2022-08-18T07:47:02.607Z,20.88
2022-08-18T07:48:15.818Z,20.92
2022-08-18T07:49:05.432Z,20.92
2022-08-18T07:50:36.255Z,20.97
2022-08-18T07:51:06.653Z,20.99
2022-08-18T07:52:02.930Z,21.03
2022-08-18T07:53:02.944Z,21.10
2022-08-18T07:54:02.605Z,21.10
2022-08-18T07:55:02.958Z,21.12
2022-08-18T07:56:02.886Z,21.10
2022-08-18T07:57:02.940Z,21.08
2022-08-18T07:58:03.049Z,21.08
2022-08-18T07:59:02.728Z,21.12
2022-08-18T08:00:03.243Z,21.16
2022-08-18T08:01:03.090Z,21.20
2022-08-18T08:02:02.178Z,21.24
2022-08-18T08:03:02.462Z,21.27
2022-08-18T08:04:02.165Z,21.28
2022-08-18T08:05:02.274Z,21.31
2022-08-18T08:06:02.132Z,21.36
2022-08-18T08:07:23.483Z,21.41
2022-08-18T08:08:02.793Z,21.47
2022-08-18T08:09:02.959Z,21.52
2022-08-18T08:10:02.763Z,21.51
2022-08-18T08:11:02.903Z,21.57
2022-08-18T08:12:02.955Z,21.62
2022-08-18T08:13:09.270Z,21.65
2022-08-18T08:14:03.091Z,21.71
2022-08-18T08:15:02.958Z,21.74
2022-08-18T08:16:03.315Z,21.75
2022-08-18T08:17:02.692Z,21.74
2022-08-18T08:18:02.698Z,21.78
2022-08-18T08:19:02.797Z,21.82
2022-08-18T08:20:03.071Z,21.84
2022-08-18T08:21:02.886Z,21.87
2022-08-18T08:22:02.659Z,21.88
2022-08-18T08:23:02.854Z,21.92
2022-08-18T08:24:03.049Z,21.96
2022-08-18T08:25:02.695Z,21.99
2022-08-18T08:26:02.625Z,22.03
2022-08-18T08:27:03.453Z,22.07
2022-08-18T08:28:02.981Z,22.08
2022-08-18T08:29:03.144Z,22.11
2022-08-18T08:30:03.251Z,22.14
2022-08-18T08:31:25.861Z,22.08
2022-08-18T08:32:02.526Z,22.04
2022-08-18T08:33:02.853Z,22.04
2022-08-18T08:34:05.981Z,22.04
2022-08-18T08:35:02.939Z,22.03
2022-08-18T08:36:02.637Z,21.99
2022-08-18T08:37:03.122Z,22.02
2022-08-18T08:38:23.014Z,22.07
2022-08-18T08:39:03.385Z,22.11
2022-08-18T08:40:03.452Z,22.10
2022-08-18T08:41:03.144Z,22.13
2022-08-18T08:42:30.214Z,22.19
2022-08-18T08:43:02.690Z,22.23
2022-08-18T08:44:02.765Z,22.26
2022-08-18T08:45:03.116Z,22.30
2022-08-18T08:46:02.901Z,22.30
2022-08-18T08:47:03.231Z,22.32
2022-08-18T08:48:08.930Z,22.30
2022-08-18T08:49:03.184Z,22.29
2022-08-18T08:50:03.356Z,22.33
2022-08-18T08:51:03.325Z,22.41
2022-08-18T08:52:03.098Z,22.46
2022-08-18T08:53:03.133Z,22.50
2022-08-18T08:54:02.828Z,22.55
2022-08-18T08:55:03.341Z,22.60
2022-08-18T08:56:03.228Z,22.66
2022-08-18T08:57:03.391Z,22.69
2022-08-18T08:58:02.979Z,22.67
2022-08-18T08:59:03.433Z,22.66
2022-08-18T09:00:03.153Z,22.71
2022-08-18T09:01:02.966Z,22.75
2022-08-18T09:02:02.396Z,22.81
2022-08-18T09:03:02.452Z,22.86
2022-08-18T09:04:02.677Z,22.91
2022-08-18T09:05:08.466Z,22.90
2022-08-18T09:06:02.348Z,22.94
2022-08-18T09:07:02.476Z,22.97
2022-08-18T09:08:02.174Z,22.99
2022-08-18T09:09:02.410Z,23.01
2022-08-18T09:10:02.758Z,23.07
2022-08-18T09:11:02.163Z,23.13
2022-08-18T09:12:02.857Z,23.18
2022-08-18T09:13:02.381Z,23.19
2022-08-18T09:14:02.388Z,23.23
2022-08-18T09:15:02.898Z,23.27
2022-08-18T09:16:02.488Z,23.28
2022-08-18T09:17:02.944Z,23.29
2022-08-18T09:18:03.084Z,23.32
2022-08-18T09:19:02.978Z,23.34
2022-08-18T09:20:03.044Z,23.34
2022-08-18T09:21:02.983Z,23.32
2022-08-18T09:22:03.145Z,23.33
2022-08-18T09:23:03.327Z,23.28
2022-08-18T09:24:03.429Z,23.21
2022-08-18T09:25:03.191Z,23.22
2022-08-18T09:26:03.585Z,23.25
2022-08-18T09:27:02.497Z,23.25
2022-08-18T09:28:11.313Z,23.25
2022-08-18T09:29:02.596Z,23.24
2022-08-18T09:30:02.998Z,23.23
2022-08-18T09:31:02.638Z,23.21
2022-08-18T09:32:02.505Z,23.18
2022-08-18T09:33:02.972Z,23.16
2022-08-18T09:34:09.722Z,23.15
2022-08-18T09:35:02.842Z,23.18
2022-08-18T09:36:02.708Z,23.13
2022-08-18T09:37:02.967Z,23.09
2022-08-18T09:38:03.166Z,23.12
2022-08-18T09:39:03.052Z,23.13
2022-08-18T09:40:10.896Z,23.08
2022-08-18T09:41:03.911Z,23.05
2022-08-18T09:42:03.196Z,23.06
2022-08-18T09:43:02.736Z,23.08
2022-08-18T09:44:02.256Z,23.10
2022-08-18T09:45:02.727Z,23.09
2022-08-18T09:46:02.557Z,23.13
2022-08-18T09:47:03.043Z,23.17
2022-08-18T09:48:03.040Z,23.18
2022-08-18T09:49:03.059Z,23.15
2022-08-18T09:50:03.054Z,23.15
2022-08-18T09:51:03.179Z,23.14
2022-08-18T09:52:03.083Z,23.13
2022-08-18T09:53:04.653Z,23.12
2022-08-18T09:54:03.116Z,23.11
2022-08-18T09:55:03.239Z,23.12
2022-08-18T09:57:02.678Z,23.18
2022-08-18T09:58:02.565Z,23.17
2022-08-18T10:00:02.922Z,23.15
2022-08-18T10:01:02.803Z,23.10
2022-08-18T10:02:02.627Z,23.05
2022-08-18T10:03:02.469Z,23.02
2022-08-18T10:04:02.568Z,23.09
2022-08-18T10:05:02.832Z,23.09
2022-08-18T10:06:03.124Z,23.13
2022-08-18T10:07:02.451Z,23.11
2022-08-18T10:09:02.572Z,23.16
2022-08-18T10:10:02.093Z,23.17
2022-08-18T10:11:09.090Z,23.16
2022-08-18T10:12:02.820Z,23.20
2022-08-18T10:13:02.377Z,23.27
2022-08-18T10:14:02.842Z,23.32
2022-08-18T10:15:02.696Z,23.33
2022-08-18T10:16:10.808Z,23.40
2022-08-18T10:17:23.376Z,23.47
2022-08-18T10:18:02.113Z,23.51
2022-08-18T10:19:02.269Z,23.48
2022-08-18T10:20:02.549Z,23.50
2022-08-18T10:21:01.907Z,23.51
2022-08-18T10:22:02.547Z,23.51
2022-08-18T10:23:02.525Z,23.46
2022-08-18T10:25:20.814Z,23.34
2022-08-18T10:26:04.724Z,23.35
2022-08-18T10:27:02.694Z,23.44
2022-08-18T10:28:02.611Z,23.53
2022-08-18T10:29:02.601Z,23.62
2022-08-18T10:30:02.512Z,23.70
2022-08-18T10:31:06.189Z,23.81
2022-08-18T10:32:03.045Z,23.92
2022-08-18T10:33:15.143Z,24.02
2022-08-18T10:34:12.104Z,24.06
2022-08-18T10:35:02.643Z,24.06
2022-08-18T10:36:03.167Z,24.12
2022-08-18T10:37:02.816Z,24.20
2022-08-18T10:38:02.233Z,24.29
2022-08-18T10:39:02.193Z,24.32
2022-08-18T10:40:02.864Z,24.35
2022-08-18T10:42:03.162Z,24.48
2022-08-18T10:43:10.666Z,24.55
2022-08-18T10:44:15.371Z,24.65
2022-08-18T10:45:02.881Z,24.73
2022-08-18T10:47:03.588Z,24.85
2022-08-18T10:48:03.137Z,24.90
2022-08-18T10:50:03.098Z,24.97
2022-08-18T10:51:04.514Z,25.03
2022-08-18T10:52:03.132Z,25.06
2022-08-18T10:53:35.227Z,25.08
2022-08-18T10:54:02.905Z,25.09
2022-08-18T10:55:02.894Z,25.09
2022-08-18T10:56:05.169Z,25.14
2022-08-18T10:57:02.636Z,25.19
2022-08-18T10:58:02.865Z,25.24
2022-08-18T10:59:02.781Z,25.30
2022-08-18T11:00:03.143Z,25.37
2022-08-18T11:01:02.814Z,25.39
2022-08-18T11:02:02.669Z,25.40
2022-08-18T11:03:30.029Z,25.44
2022-08-18T11:04:11.697Z,25.48
2022-08-18T11:05:03.144Z,25.48
2022-08-18T11:06:03.574Z,25.52
2022-08-18T11:07:02.911Z,25.55
2022-08-18T11:08:02.527Z,25.58
2022-08-18T11:09:02.346Z,25.52
2022-08-18T11:10:28.235Z,25.49
2022-08-18T11:11:34.086Z,25.50
2022-08-18T11:12:02.436Z,25.56
2022-08-18T11:13:08.868Z,25.65
2022-08-18T11:14:02.654Z,25.69
2022-08-18T11:15:23.472Z,25.65
2022-08-18T11:16:03.026Z,25.62
2022-08-18T11:17:02.955Z,25.62
2022-08-18T11:18:02.432Z,25.53
2022-08-18T11:19:02.143Z,25.55
2022-08-18T11:20:02.520Z,25.58
2022-08-18T11:21:02.638Z,25.61
2022-08-18T11:22:02.489Z,25.63
2022-08-18T11:23:02.294Z,25.68
2022-08-18T11:24:02.432Z,25.72
2022-08-18T11:25:03.226Z,25.68
2022-08-18T11:26:02.256Z,25.69
2022-08-18T11:27:02.688Z,25.70
2022-08-18T11:28:02.906Z,25.74
2022-08-18T11:29:02.466Z,25.84
2022-08-18T11:30:03.034Z,25.89
2022-08-18T11:31:02.694Z,25.93
2022-08-18T11:32:02.787Z,25.96
2022-08-18T11:33:03.336Z,26.03
2022-08-18T11:34:02.326Z,26.06
2022-08-18T11:35:02.555Z,26.08
2022-08-18T11:36:02.792Z,26.08
2022-08-18T11:37:02.880Z,26.15
2022-08-18T11:38:02.300Z,26.18
2022-08-18T11:39:02.483Z,26.22
2022-08-18T11:40:02.828Z,26.24
2022-08-18T11:41:09.126Z,26.29
2022-08-18T11:42:02.856Z,26.30
2022-08-18T11:43:02.680Z,26.18
2022-08-18T11:44:02.950Z,26.19
2022-08-18T11:45:02.804Z,26.19
2022-08-18T11:46:02.870Z,26.25
2022-08-18T11:47:02.469Z,26.36
2022-08-18T11:48:03.478Z,26.41
2022-08-18T11:49:04.484Z,26.45
2022-08-18T11:50:04.426Z,26.54
2022-08-18T11:51:03.215Z,26.58
2022-08-18T11:52:03.744Z,26.65
2022-08-18T11:53:03.753Z,26.69
2022-08-18T11:54:03.376Z,26.72
2022-08-18T11:55:16.834Z,26.69
2022-08-18T11:56:03.806Z,26.70
2022-08-18T11:57:03.712Z,26.66
2022-08-18T11:58:02.411Z,26.61
2022-08-18T11:59:02.923Z,26.60
2022-08-18T12:00:02.926Z,26.61
2022-08-18T12:01:03.435Z,26.55
2022-08-18T12:02:02.826Z,26.59
2022-08-18T12:03:02.620Z,26.69
2022-08-18T12:04:02.674Z,26.83
2022-08-18T12:05:03.208Z,26.96
2022-08-18T12:06:03.019Z,27.02
2022-08-18T12:07:04.466Z,27.16
2022-08-18T12:08:06.355Z,27.25
2022-08-18T12:09:02.524Z,27.32
2022-08-18T12:10:17.888Z,27.32
2022-08-18T12:11:02.942Z,27.37
2022-08-18T12:12:02.564Z,27.47
2022-08-18T12:13:02.126Z,27.58
2022-08-18T12:14:30.163Z,27.61
2022-08-18T12:16:02.010Z,27.70
2022-08-18T12:17:02.092Z,27.71
2022-08-18T12:18:02.904Z,27.72
2022-08-18T12:19:03.091Z,27.71
2022-08-18T12:20:02.996Z,27.69
2022-08-18T12:21:03.251Z,27.65
2022-08-18T12:23:02.080Z,27.56
2022-08-18T12:24:02.563Z,27.51
2022-08-18T12:25:01.902Z,27.41
2022-08-18T12:26:02.221Z,27.37
2022-08-18T12:27:02.307Z,27.39
2022-08-18T12:28:02.660Z,27.35
2022-08-18T12:29:03.026Z,27.26
2022-08-18T12:30:02.884Z,27.29
2022-08-18T12:31:03.020Z,27.35
2022-08-18T12:32:02.518Z,27.43
2022-08-18T12:33:05.845Z,27.47
2022-08-18T12:34:02.711Z,27.49
2022-08-18T12:35:08.993Z,27.49
2022-08-18T12:36:04.133Z,27.52
2022-08-18T12:37:02.739Z,27.52
2022-08-18T12:38:04.903Z,27.54
2022-08-18T12:39:02.645Z,27.57
2022-08-18T12:40:02.663Z,27.61
2022-08-18T12:41:03.051Z,27.63
2022-08-18T12:42:02.675Z,27.56
2022-08-18T12:43:02.784Z,27.57
2022-08-18T12:44:02.139Z,27.64
2022-08-18T12:45:02.282Z,27.63
2022-08-18T12:46:02.344Z,27.57
2022-08-18T12:47:02.685Z,27.59
2022-08-18T12:48:04.325Z,27.54
2022-08-18T12:49:03.329Z,27.49
2022-08-18T12:50:03.157Z,27.43
2022-08-18T12:51:05.652Z,27.47
2022-08-18T12:52:03.583Z,27.44
2022-08-18T12:53:02.731Z,27.30
2022-08-18T12:54:02.803Z,27.28
2022-08-18T12:55:03.263Z,27.29
2022-08-18T12:56:02.595Z,27.22
2022-08-18T12:57:02.519Z,27.28
2022-08-18T12:58:03.023Z,27.25
2022-08-18T12:59:04.206Z,27.25
2022-08-18T13:00:04.201Z,27.36
2022-08-18T13:01:03.912Z,27.42